Donnelly, ID

4:54 AM MST on November 26, 2014 (GMT -0700)
TMA Office | Change Station
CLOSE
Current Station
Personal Weather Station
Location: Donnelly, ID
Elevation: 4875 ft
Nearby Weather Stations

Elev 4875 ft 44.67 °N, 116.12 °W | Updated 9 minutes ago

Overcast
Overcast
41.4 °F
Feels Like 41 °F
N
2.2
Wind Variable Wind from South
Gusts 6.0 mph

Today
High -- | Low -- °F
--% Chance of Precip.
Yesterday
High -- | Low -- °F
Precip. -- in
7:55 AM 5:07 PM
Waxing Crescent, 19% visible
Pressure 30.32 in
Visibility 3.0 miles
Clouds Overcast 3300 ft
Windchill 41 °F
Dew Point 38 °F
Humidity 89%
Rainfall 0.00 in
Snow Depth Not available.
UV 0 out of 12
Pollen .40 out of 12
Air Quality Not available.
Flu Activity Not available.
METAR KMYL 261151Z AUTO 00000KT 3SM BR OVC033 02/01 A3027 RMK AO2 SLP267 70064 T00170011 10022 20011 51010

More Conditions Fewer Conditions

Pressure 30.32 in
Visibility 3.0 miles
Clouds Overcast 3300 ft
Windchill 41 °F
Dew Point 38 °F
Humidity 89%
Rainfall 0.00 in
Snow Depth Not available.
UV 0 out of 12
Pollen .40 out of 12
Air Quality Not available.
Flu Activity Not available.
METAR KMYL 261151Z AUTO 00000KT 3SM BR OVC033 02/01 A3027 RMK AO2 SLP267 70064 T00170011 10022 20011 51010

More Conditions Fewer Conditions

10-Day Weather Forecast

Almanac

Astronomy

Nov. 26, 2014 Rise Set
Actual Time
Civil Twilight
Nautical Twilight
Astronomical Twilight
Moon
Length of Visible Light
Length of Day
Tomorrow will be .
, % of the Moon is Illuminated

Today's Extremes

State Highs State Lows

Community

WunderPhotos

Upload Photos

1,773,708 photos uploaded!

WunderBlogs® & News

Nearby

Air Quality

  Air Quality AQ Index Pollutant
Not available.

Snow Depth

Station Depth Elevation

Earthquake Activity

City Distance Mag. Time & Date
Minimum magnitude displayed is 2.5.

Coastal Water Temperatures

Place Temperature

Nearby Weather Stations